Time;durP1;ratioP1;P1;durP2;ratioP2;P2;SDS_P1;SDS_P2;PMS_P1;PMS_P2;Temp;Humidity;BMP_temperature;BMP_pressure;BME280_temperature;BME280_humidity;BME280_pressure;Samples;Min_cycle;Max_cycle;Signal;HPM_P1;HPM_P2
2024/01/05 00:01:15;;;;;;;0.20;0.20;;;;;;;;;;6331143;28;20554;-85
2024/01/05 00:04:15;;;;;;;0.20;0.20;;;;;;;;;;6335265;28;20052;-80
2024/01/05 00:07:15;;;;;;;0.20;0.20;;;;;;;;;;6312850;28;20027;-79
2024/01/05 00:10:16;;;;;;;0.20;0.20;;;;;;;;;;6336488;28;20595;-80
2024/01/05 00:13:16;;;;;;;0.20;0.20;;;;;;;;;;6336530;28;20023;-83
2024/01/05 00:16:17;;;;;;;0.20;0.20;;;;;;;;;;6336712;28;20015;-83
2024/01/05 00:19:17;;;;;;;0.20;0.20;;;;;;;;;;6305950;28;20016;-82
2024/01/05 00:22:19;;;;;;;0.20;0.20;;;;;;;;;;6331007;28;20020;-83
2024/01/05 00:25:21;;;;;;;0.20;0.20;;;;;;;;;;6332699;28;20473;-83
2024/01/05 00:28:21;;;;;;;0.20;0.20;;;;;;;;;;6321643;28;20073;-84
2024/01/05 00:31:22;;;;;;;0.20;0.20;;;;;;;;;;6303289;28;20027;-83
2024/01/05 00:34:22;;;;;;;0.20;0.20;;;;;;;;;;6322779;28;20023;-83
2024/01/05 00:37:22;;;;;;;0.20;0.20;;;;;;;;;;6323057;28;20008;-84
2024/01/05 00:40:22;;;;;;;0.20;0.20;;;;;;;;;;6307244;28;20146;-83
2024/01/05 00:43:22;;;;;;;0.20;0.20;;;;;;;;;;6314862;28;20478;-83
2024/01/05 00:46:23;;;;;;;0.20;0.20;;;;;;;;;;6329341;28;20019;-84
2024/01/05 00:49:23;;;;;;;0.20;0.20;;;;;;;;;;6325640;28;20051;-85
2024/01/05 00:52:23;;;;;;;0.20;0.20;;;;;;;;;;6318543;28;20036;-84
2024/01/05 00:55:24;;;;;;;0.20;0.20;;;;;;;;;;6288303;28;20070;-85
2024/01/05 00:58:24;;;;;;;0.20;0.20;;;;;;;;;;6331402;28;20019;-84
2024/01/05 01:01:24;;;;;;;0.20;0.20;;;;;;;;;;6327126;28;20031;-85
2024/01/05 01:04:24;;;;;;;0.20;0.20;;;;;;;;;;6318483;28;20027;-84
2024/01/05 01:07:25;;;;;;;0.20;0.20;;;;;;;;;;6326107;28;20020;-85
2024/01/05 01:10:25;;;;;;;0.20;0.20;;;;;;;;;;6323504;28;20398;-85
2024/01/05 01:13:25;;;;;;;0.20;0.20;;;;;;;;;;6320107;28;20489;-84
2024/01/05 01:16:25;;;;;;;0.20;0.20;;;;;;;;;;6296775;28;20372;-85
2024/01/05 01:19:25;;;;;;;0.20;0.20;;;;;;;;;;6312867;28;20032;-85
2024/01/05 01:22:26;;;;;;;0.20;0.20;;;;;;;;;;6317183;28;20158;-84
2024/01/05 01:25:26;;;;;;;0.23;0.23;;;;;;;;;;6329577;28;20098;-81
2024/01/05 01:28:27;;;;;;;0.20;0.20;;;;;;;;;;6311827;28;20019;-81
2024/01/05 01:31:28;;;;;;;0.20;0.20;;;;;;;;;;6313504;28;20028;-81
2024/01/05 01:34:28;;;;;;;0.20;0.20;;;;;;;;;;6300580;28;20024;-81
2024/01/05 01:37:29;;;;;;;0.20;0.20;;;;;;;;;;6301877;28;20021;-81
2024/01/05 01:40:29;;;;;;;0.20;0.20;;;;;;;;;;6312121;28;20132;-81
2024/01/05 01:43:29;;;;;;;0.30;0.30;;;;;;;;;;6313660;28;20373;-80
2024/01/05 01:46:31;;;;;;;0.20;0.20;;;;;;;;;;6318544;28;20495;-80
2024/01/05 01:49:32;;;;;;;0.20;0.20;;;;;;;;;;6297537;28;20605;-80
2024/01/05 01:52:32;;;;;;;0.20;0.20;;;;;;;;;;6326739;28;20020;-80
2024/01/05 01:55:32;;;;;;;0.20;0.20;;;;;;;;;;6323651;28;20070;-80
2024/01/05 01:58:33;;;;;;;0.20;0.20;;;;;;;;;;6326349;28;20041;-80
2024/01/05 02:01:34;;;;;;;0.20;0.20;;;;;;;;;;6326873;28;20394;-80
2024/01/05 02:04:35;;;;;;;0.20;0.20;;;;;;;;;;6320626;28;20385;-80
2024/01/05 02:07:35;;;;;;;0.20;0.20;;;;;;;;;;6334797;28;20035;-80
2024/01/05 02:10:36;;;;;;;0.20;0.20;;;;;;;;;;6335711;28;20015;-80
2024/01/05 02:13:36;;;;;;;0.20;0.20;;;;;;;;;;6329121;28;20020;-81
2024/01/05 02:16:36;;;;;;;0.20;0.20;;;;;;;;;;6328865;28;20030;-81
2024/01/05 02:19:36;;;;;;;0.20;0.20;;;;;;;;;;6324860;28;20020;-81
2024/01/05 02:22:38;;;;;;;0.20;0.20;;;;;;;;;;6310774;28;20028;-81
2024/01/05 02:25:39;;;;;;;0.20;0.20;;;;;;;;;;6302488;28;20105;-80
2024/01/05 02:28:40;;;;;;;0.20;0.20;;;;;;;;;;6311183;28;20066;-80
2024/01/05 02:31:40;;;;;;;0.20;0.20;;;;;;;;;;6319427;28;20032;-81
2024/01/05 02:34:40;;;;;;;0.20;0.20;;;;;;;;;;6306751;28;20027;-81
2024/01/05 02:37:43;;;;;;;0.20;0.20;;;;;;;;;;6302207;28;20103;-81
2024/01/05 02:40:43;;;;;;;0.20;0.20;;;;;;;;;;6315966;28;20015;-81
2024/01/05 02:43:44;;;;;;;0.20;0.20;;;;;;;;;;6329076;28;20106;-81
2024/01/05 02:46:44;;;;;;;0.20;0.20;;;;;;;;;;6322106;28;20020;-81
2024/01/05 02:49:44;;;;;;;0.20;0.20;;;;;;;;;;6334027;28;20030;-81
2024/01/05 02:52:45;;;;;;;0.20;0.20;;;;;;;;;;6332923;28;20030;-81
2024/01/05 02:55:45;;;;;;;0.20;0.20;;;;;;;;;;6333810;28;20016;-81
2024/01/05 02:58:45;;;;;;;0.20;0.20;;;;;;;;;;6340728;28;20012;-81
2024/01/05 03:01:47;;;;;;;0.20;0.20;;;;;;;;;;6308869;28;20378;-81
2024/01/05 03:04:49;;;;;;;;;;;;;;;;;;6323033;28;20619;-81
2024/01/05 03:07:49;;;;;;;0.25;0.25;;;;;;;;;;6319836;28;19954;-81
2024/01/05 03:10:49;;;;;;;0.20;0.20;;;;;;;;;;6304796;28;20488;-81
2024/01/05 03:13:49;;;;;;;0.20;0.20;;;;;;;;;;6323614;28;20557;-80
2024/01/05 03:16:49;;;;;;;0.30;0.30;;;;;;;;;;6306261;28;20048;-80
2024/01/05 03:19:50;;;;;;;0.20;0.20;;;;;;;;;;6315396;28;20035;-81
2024/01/05 03:22:50;;;;;;;0.20;0.20;;;;;;;;;;6325689;28;20051;-81
2024/01/05 03:25:50;;;;;;;0.20;0.20;;;;;;;;;;6328783;28;20094;-86
2024/01/05 03:28:51;;;;;;;0.20;0.20;;;;;;;;;;6329729;28;20068;-86
2024/01/05 03:31:51;;;;;;;0.20;0.20;;;;;;;;;;6313756;28;20023;-86
2024/01/05 03:34:51;;;;;;;0.20;0.20;;;;;;;;;;6331925;28;20038;-86
2024/01/05 03:37:52;;;;;;;0.20;0.20;;;;;;;;;;6336969;28;20049;-86
2024/01/05 03:40:52;;;;;;;0.20;0.20;;;;;;;;;;6340077;28;20026;-86
2024/01/05 03:43:52;;;;;;;0.20;0.20;;;;;;;;;;6332546;28;20035;-81
2024/01/05 03:46:52;;;;;;;0.20;0.20;;;;;;;;;;6308540;28;20035;-81
2024/01/05 03:49:53;;;;;;;0.30;0.30;;;;;;;;;;6329228;28;20085;-81
2024/01/05 03:52:53;;;;;;;0.20;0.20;;;;;;;;;;6326729;28;20091;-81
2024/01/05 03:55:53;;;;;;;0.20;0.20;;;;;;;;;;6304683;28;20020;-81
2024/01/05 03:58:53;;;;;;;0.20;0.20;;;;;;;;;;6310087;28;20015;-80
2024/01/05 04:01:54;;;;;;;0.20;0.20;;;;;;;;;;6322523;28;20091;-80
2024/01/05 04:04:54;;;;;;;0.20;0.20;;;;;;;;;;6329011;28;20103;-81
2024/01/05 04:07:54;;;;;;;0.20;0.20;;;;;;;;;;6301629;28;20040;-81
2024/01/05 04:10:54;;;;;;;0.20;0.20;;;;;;;;;;6307219;28;20067;-81
2024/01/05 04:13:54;;;;;;;0.20;0.20;;;;;;;;;;6330169;28;20013;-81
2024/01/05 04:16:54;;;;;;;0.20;0.20;;;;;;;;;;6311704;28;20027;-81
2024/01/05 04:19:55;;;;;;;0.20;0.20;;;;;;;;;;6339615;28;20031;-81
2024/01/05 04:22:55;;;;;;;0.20;0.20;;;;;;;;;;6330735;28;20470;-81
2024/01/05 04:25:55;;;;;;;0.20;0.20;;;;;;;;;;6325313;28;20410;-80
2024/01/05 04:28:56;;;;;;;0.20;0.20;;;;;;;;;;6322606;28;20051;-80
2024/01/05 04:31:56;;;;;;;0.20;0.20;;;;;;;;;;6337929;28;20051;-80
2024/01/05 04:34:56;;;;;;;0.20;0.20;;;;;;;;;;6303895;28;20382;-81
2024/01/05 04:37:56;;;;;;;0.20;0.20;;;;;;;;;;6288442;28;20027;-80
2024/01/05 04:40:57;;;;;;;0.20;0.20;;;;;;;;;;6325817;28;20016;-80
2024/01/05 04:43:57;;;;;;;0.30;0.30;;;;;;;;;;6328583;28;20027;-80
2024/01/05 04:46:58;;;;;;;0.20;0.20;;;;;;;;;;6318269;28;20382;-80
2024/01/05 04:49:58;;;;;;;0.30;0.30;;;;;;;;;;6315080;28;20031;-80
2024/01/05 04:52:58;;;;;;;0.20;0.20;;;;;;;;;;6333581;28;20016;-80
2024/01/05 04:55:58;;;;;;;0.20;0.20;;;;;;;;;;6332977;28;20023;-86
2024/01/05 04:58:59;;;;;;;0.20;0.20;;;;;;;;;;6317759;28;20043;-86
2024/01/05 05:01:59;;;;;;;0.20;0.20;;;;;;;;;;6322654;28;20020;-85
2024/01/05 05:04:59;;;;;;;0.20;0.20;;;;;;;;;;6296200;28;20016;-86
2024/01/05 05:07:59;;;;;;;0.20;0.20;;;;;;;;;;6309101;28;20094;-86
2024/01/05 05:11:00;;;;;;;0.30;0.30;;;;;;;;;;6326747;28;20038;-86
2024/01/05 05:14:00;;;;;;;0.30;0.30;;;;;;;;;;6326349;28;20030;-86
2024/01/05 05:17:00;;;;;;;0.20;0.20;;;;;;;;;;6323360;28;20031;-85
2024/01/05 05:20:00;;;;;;;0.20;0.20;;;;;;;;;;6335535;28;20138;-85
2024/01/05 05:23:01;;;;;;;0.20;0.20;;;;;;;;;;6304422;28;20091;-85
2024/01/05 05:26:01;;;;;;;0.20;0.20;;;;;;;;;;6314576;28;20092;-86
2024/01/05 05:29:01;;;;;;;0.20;0.20;;;;;;;;;;6325074;28;20035;-85
2024/01/05 05:32:02;;;;;;;0.30;0.30;;;;;;;;;;6330965;28;20016;-85
2024/01/05 05:35:02;;;;;;;0.30;0.30;;;;;;;;;;6337665;28;20497;-85
2024/01/05 05:38:03;;;;;;;0.30;0.30;;;;;;;;;;6316473;28;20390;-86
2024/01/05 05:41:03;;;;;;;0.20;0.20;;;;;;;;;;6335597;28;20031;-85
2024/01/05 05:44:03;;;;;;;0.20;0.20;;;;;;;;;;6336160;28;20410;-86
2024/01/05 05:47:04;;;;;;;0.20;0.20;;;;;;;;;;6333677;28;20102;-86
2024/01/05 05:50:07;;;;;;;0.20;0.20;;;;;;;;;;6332883;28;20024;-86
2024/01/05 05:53:09;;;;;;;0.20;0.20;;;;;;;;;;6291777;28;20021;-86
2024/01/05 05:56:10;;;;;;;0.20;0.20;;;;;;;;;;6328766;28;20011;-86
2024/01/05 05:59:10;;;;;;;0.20;0.20;;;;;;;;;;6311977;28;20109;-86
2024/01/05 06:02:10;;;;;;;0.20;0.20;;;;;;;;;;6307216;28;20436;-86
2024/01/05 06:05:11;;;;;;;0.20;0.20;;;;;;;;;;6312970;28;20059;-86
2024/01/05 06:08:11;;;;;;;0.27;0.27;;;;;;;;;;6322575;28;20063;-86
2024/01/05 06:11:12;;;;;;;0.20;0.20;;;;;;;;;;6339391;28;20393;-86
2024/01/05 06:14:12;;;;;;;0.20;0.20;;;;;;;;;;6334190;28;20031;-86
2024/01/05 06:17:13;;;;;;;0.20;0.20;;;;;;;;;;6334060;28;20382;-86
2024/01/05 06:20:13;;;;;;;0.20;0.20;;;;;;;;;;6335885;28;20485;-86
2024/01/05 06:23:13;;;;;;;0.20;0.20;;;;;;;;;;6337798;28;20016;-86
2024/01/05 06:26:13;;;;;;;0.20;0.20;;;;;;;;;;6340640;28;20057;-86
2024/01/05 06:29:14;;;;;;;0.20;0.20;;;;;;;;;;6324333;28;20035;-86
2024/01/05 06:32:14;;;;;;;0.20;0.20;;;;;;;;;;6316989;28;20027;-86
2024/01/05 06:35:14;;;;;;;0.20;0.20;;;;;;;;;;6329465;28;20059;-86
2024/01/05 06:38:14;;;;;;;0.20;0.20;;;;;;;;;;6323770;28;20524;-86
2024/01/05 06:41:15;;;;;;;0.20;0.20;;;;;;;;;;6310291;28;20079;-88
2024/01/05 06:44:15;;;;;;;0.20;0.20;;;;;;;;;;6296823;28;20114;-88
2024/01/05 06:47:16;;;;;;;0.20;0.20;;;;;;;;;;6329596;28;20028;-88
2024/01/05 06:50:16;;;;;;;0.27;0.27;;;;;;;;;;6325949;28;20518;-88
2024/01/05 06:53:16;;;;;;;0.20;0.20;;;;;;;;;;6328307;28;20078;-87
2024/01/05 06:56:18;;;;;;;0.20;0.20;;;;;;;;;;6330984;28;20019;-82
2024/01/05 06:59:20;;;;;;;0.20;0.20;;;;;;;;;;6303987;28;20217;-82
2024/01/05 07:02:20;;;;;;;0.20;0.20;;;;;;;;;;6329018;28;20084;-83
2024/01/05 07:05:20;;;;;;;0.20;0.20;;;;;;;;;;6311605;28;20445;-83
2024/01/05 07:08:21;;;;;;;0.30;0.30;;;;;;;;;;6329141;28;20026;-83
2024/01/05 07:11:24;;;;;;;0.20;0.20;;;;;;;;;;6317140;28;20028;-83
2024/01/05 07:14:27;;;;;;;0.30;0.30;;;;;;;;;;6298476;28;20024;-83
2024/01/05 07:17:27;;;;;;;0.30;0.30;;;;;;;;;;6321764;28;20418;-83
2024/01/05 07:20:28;;;;;;;0.20;0.20;;;;;;;;;;6313980;28;20016;-83
2024/01/05 07:23:28;;;;;;;0.20;0.20;;;;;;;;;;6325704;28;20467;-83
2024/01/05 07:26:28;;;;;;;0.20;0.20;;;;;;;;;;6327010;28;20039;-83
2024/01/05 07:29:28;;;;;;;0.20;0.20;;;;;;;;;;6321172;28;20031;-83
2024/01/05 07:32:28;;;;;;;0.20;0.20;;;;;;;;;;6328658;28;20047;-83
2024/01/05 07:35:29;;;;;;;0.20;0.20;;;;;;;;;;6337889;28;20529;-83
2024/01/05 07:38:29;;;;;;;0.20;0.20;;;;;;;;;;6333208;28;20025;-83
2024/01/05 07:41:29;;;;;;;0.20;0.20;;;;;;;;;;6331159;28;20038;-83
2024/01/05 07:44:30;;;;;;;0.20;0.20;;;;;;;;;;6337077;28;20107;-83
2024/01/05 07:47:30;;;;;;;0.20;0.20;;;;;;;;;;6325481;28;20389;-83
2024/01/05 07:50:31;;;;;;;0.20;0.20;;;;;;;;;;6332691;28;20038;-82
2024/01/05 07:53:31;;;;;;;0.20;0.20;;;;;;;;;;6315207;28;20015;-83
2024/01/05 07:56:35;;;;;;;0.20;0.20;;;;;;;;;;6339556;28;20015;-83
2024/01/05 07:59:36;;;;;;;0.20;0.20;;;;;;;;;;6334010;28;20484;-83
2024/01/05 08:02:36;;;;;;;0.20;0.20;;;;;;;;;;6332264;28;20016;-83
2024/01/05 08:05:37;;;;;;;0.20;0.20;;;;;;;;;;6329293;28;20020;-83
2024/01/05 08:08:39;;;;;;;0.20;0.20;;;;;;;;;;6331593;28;20060;-83
2024/01/05 08:11:39;;;;;;;0.20;0.20;;;;;;;;;;6331064;28;20025;-83
2024/01/05 08:14:39;;;;;;;0.20;0.20;;;;;;;;;;6314078;28;20024;-83
2024/01/05 08:17:40;;;;;;;0.20;0.20;;;;;;;;;;6320858;28;20035;-83
2024/01/05 08:20:40;;;;;;;0.20;0.20;;;;;;;;;;6304255;28;20146;-83
2024/01/05 08:23:40;;;;;;;0.20;0.20;;;;;;;;;;6314965;28;20023;-83
2024/01/05 08:26:43;;;;;;;0.20;0.20;;;;;;;;;;6329432;28;20047;-83
2024/01/05 08:29:43;;;;;;;0.20;0.20;;;;;;;;;;6310520;28;20024;-83
2024/01/05 08:32:43;;;;;;;0.20;0.20;;;;;;;;;;6317346;28;20095;-83
2024/01/05 08:35:44;;;;;;;0.20;0.20;;;;;;;;;;6322351;28;20542;-86
2024/01/05 08:38:44;;;;;;;0.20;0.20;;;;;;;;;;6309271;28;20030;-86
2024/01/05 08:41:45;;;;;;;0.20;0.20;;;;;;;;;;6304992;28;20028;-86
2024/01/05 08:44:45;;;;;;;0.20;0.20;;;;;;;;;;6337416;28;20023;-86
2024/01/05 08:47:45;;;;;;;0.20;0.20;;;;;;;;;;6333147;28;20478;-86
2024/01/05 08:50:45;;;;;;;0.30;0.30;;;;;;;;;;6332903;28;20032;-86
2024/01/05 08:53:45;;;;;;;0.20;0.20;;;;;;;;;;6303476;28;20016;-86
2024/01/05 08:56:46;;;;;;;0.20;0.20;;;;;;;;;;6308452;28;20382;-86
2024/01/05 08:59:46;;;;;;;0.20;0.20;;;;;;;;;;6306560;28;20055;-86
2024/01/05 09:02:46;;;;;;;0.20;0.20;;;;;;;;;;6321835;28;20073;-86
2024/01/05 09:05:46;;;;;;;0.30;0.30;;;;;;;;;;6322854;28;20021;-86
2024/01/05 09:08:47;;;;;;;0.20;0.20;;;;;;;;;;6308085;28;20024;-86
2024/01/05 09:11:47;;;;;;;0.20;0.20;;;;;;;;;;6321131;28;20019;-86
2024/01/05 09:14:47;;;;;;;0.20;0.20;;;;;;;;;;6321517;28;20394;-86
2024/01/05 09:17:47;;;;;;;0.20;0.20;;;;;;;;;;6295657;28;20029;-86
2024/01/05 09:20:50;;;;;;;0.20;0.20;;;;;;;;;;6298785;28;20078;-86
2024/01/05 09:23:51;;;;;;;0.20;0.20;;;;;;;;;;6318654;28;20027;-86
2024/01/05 09:26:51;;;;;;;0.20;0.20;;;;;;;;;;6303705;28;20059;-86
2024/01/05 09:29:51;;;;;;;0.20;0.20;;;;;;;;;;6303981;28;20482;-86
2024/01/05 09:32:52;;;;;;;0.20;0.20;;;;;;;;;;6302172;28;20016;-87
2024/01/05 09:35:52;;;;;;;0.20;0.20;;;;;;;;;;6306087;28;20016;-87
2024/01/05 09:38:52;;;;;;;0.20;0.20;;;;;;;;;;6314899;28;20580;-87
2024/01/05 09:41:53;;;;;;;0.20;0.20;;;;;;;;;;6301722;28;20029;-87
2024/01/05 09:44:53;;;;;;;0.20;0.20;;;;;;;;;;6297892;28;20032;-87
2024/01/05 09:47:57;;;;;;;0.20;0.20;;;;;;;;;;6288543;28;20536;-87
2024/01/05 09:50:57;;;;;;;0.20;0.20;;;;;;;;;;6306958;28;20541;-87
2024/01/05 09:53:58;;;;;;;0.10;0.10;;;;;;;;;;6307114;28;20022;-83
2024/01/05 09:56:59;;;;;;;0.20;0.20;;;;;;;;;;6307817;28;20556;-83
2024/01/05 10:00:03;;;;;;;0.20;0.20;;;;;;;;;;6316925;28;20024;-83
2024/01/05 10:03:07;;;;;;;0.20;0.20;;;;;;;;;;6312372;28;20024;-83
2024/01/05 10:06:07;;;;;;;0.28;0.28;;;;;;;;;;6309813;28;20497;-83
2024/01/05 10:09:08;;;;;;;0.20;0.20;;;;;;;;;;6314629;28;20036;-83
2024/01/05 10:12:12;;;;;;;0.20;0.20;;;;;;;;;;6316633;28;20466;-83
2024/01/05 10:15:13;;;;;;;0.20;0.20;;;;;;;;;;6325492;28;20462;-83
2024/01/05 10:18:16;;;;;;;0.20;0.20;;;;;;;;;;6318507;28;20073;-82
2024/01/05 10:21:18;;;;;;;0.20;0.20;;;;;;;;;;6328482;28;20486;-82
2024/01/05 10:24:23;;;;;;;0.20;0.20;;;;;;;;;;6310555;28;20057;-82
2024/01/05 10:27:27;;;;;;;0.20;0.20;;;;;;;;;;6332534;28;20052;-82
2024/01/05 10:30:30;;;;;;;0.20;0.20;;;;;;;;;;6336301;28;20085;-82
2024/01/05 10:33:31;;;;;;;0.20;0.20;;;;;;;;;;6316482;28;20040;-82
2024/01/05 10:36:31;;;;;;;0.20;0.20;;;;;;;;;;6331710;28;20409;-82
2024/01/05 10:39:31;;;;;;;0.20;0.20;;;;;;;;;;6336410;28;20091;-82
2024/01/05 10:42:34;;;;;;;0.20;0.20;;;;;;;;;;6317132;28;20058;-82
2024/01/05 10:45:35;;;;;;;0.20;0.20;;;;;;;;;;6316976;28;20031;-83
2024/01/05 10:48:35;;;;;;;0.20;0.20;;;;;;;;;;6317514;28;20395;-83
2024/01/05 10:51:36;;;;;;;0.20;0.20;;;;;;;;;;6303345;28;20055;-83
2024/01/05 10:54:36;;;;;;;0.20;0.20;;;;;;;;;;6309516;28;20108;-83
2024/01/05 10:57:37;;;;;;;0.20;0.20;;;;;;;;;;6296693;28;20520;-83
2024/01/05 11:00:38;;;;;;;0.20;0.20;;;;;;;;;;6315111;28;20016;-83
2024/01/05 11:03:40;;;;;;;0.20;0.20;;;;;;;;;;6317117;28;20032;-83
2024/01/05 11:06:40;;;;;;;;;;;;;;;;;;6331156;28;20438;-83
2024/01/05 11:09:50;;;;;;;0.20;0.20;;;;;;;;;;6323259;28;19922;-83
2024/01/05 11:12:50;;;;;;;0.20;0.20;;;;;;;;;;6301264;28;20481;-83
2024/01/05 11:16:09;;;;;;;0.20;0.20;;;;;;;;;;6316763;28;20025;-83
2024/01/05 11:19:21;;;;;;;0.20;0.20;;;;;;;;;;6303180;28;20029;-83
2024/01/05 11:22:27;;;;;;;0.20;0.20;;;;;;;;;;6298639;28;20027;-83
2024/01/05 11:25:27;;;;;;;0.20;0.20;;;;;;;;;;6304297;28;20052;-87
2024/01/05 11:28:38;;;;;;;0.20;0.20;;;;;;;;;;6321609;28;20031;-87
2024/01/05 11:31:47;;;;;;;0.20;0.20;;;;;;;;;;6322988;28;20086;-87
2024/01/05 11:34:49;;;;;;;0.20;0.20;;;;;;;;;;6320055;28;20068;-88
2024/01/05 11:37:49;;;;;;;0.20;0.20;;;;;;;;;;6292118;28;20064;-87
2024/01/05 11:40:49;;;;;;;0.20;0.20;;;;;;;;;;6327076;28;20012;-87
2024/01/05 11:43:50;;;;;;;0.20;0.20;;;;;;;;;;6334511;28;20382;-87
2024/01/05 11:46:52;;;;;;;0.20;0.20;;;;;;;;;;6331093;28;20287;-88
2024/01/05 11:49:52;;;;;;;0.10;0.10;;;;;;;;;;6328542;28;20079;-86
2024/01/05 11:53:11;;;;;;;0.20;0.20;;;;;;;;;;6315499;28;20097;-87
2024/01/05 11:56:17;;;;;;;0.20;0.20;;;;;;;;;;6321022;28;20051;-87
2024/01/05 11:59:17;;;;;;;0.20;0.20;;;;;;;;;;6333316;28;20020;-87
2024/01/05 12:02:18;;;;;;;0.20;0.20;;;;;;;;;;6328157;28;20134;-87
2024/01/05 12:05:18;;;;;;;0.20;0.20;;;;;;;;;;6313251;28;20382;-88
2024/01/05 12:08:18;;;;;;;0.20;0.20;;;;;;;;;;6298497;28;20067;-87
2024/01/05 12:11:19;;;;;;;0.20;0.20;;;;;;;;;;6293925;28;20160;-88
2024/01/05 12:14:28;;;;;;;0.20;0.20;;;;;;;;;;6295285;28;20055;-82
2024/01/05 12:17:29;;;;;;;0.20;0.20;;;;;;;;;;6318245;28;20095;-82
2024/01/05 12:20:32;;;;;;;0.20;0.20;;;;;;;;;;6320367;28;20334;-82
2024/01/05 12:23:32;;;;;;;0.17;0.17;;;;;;;;;;6321325;28;20030;-82
2024/01/05 12:26:33;;;;;;;0.10;0.10;;;;;;;;;;6328772;28;20044;-82
2024/01/05 12:29:33;;;;;;;0.20;0.20;;;;;;;;;;6292438;28;20015;-82
2024/01/05 12:32:35;;;;;;;0.20;0.20;;;;;;;;;;6313073;28;20048;-82
2024/01/05 12:35:35;;;;;;;0.20;0.20;;;;;;;;;;6279765;28;20051;-85
2024/01/05 12:38:36;;;;;;;0.20;0.20;;;;;;;;;;6302632;28;20489;-86
2024/01/05 12:41:39;;;;;;;0.13;0.13;;;;;;;;;;6297215;28;20047;-88
2024/01/05 12:44:39;;;;;;;0.20;0.20;;;;;;;;;;6315356;28;20115;-88
2024/01/05 12:47:40;;;;;;;0.20;0.20;;;;;;;;;;6317825;28;20028;-87
2024/01/05 12:50:41;;;;;;;0.10;0.10;;;;;;;;;;6315287;28;20032;-88
2024/01/05 12:53:42;;;;;;;0.10;0.10;;;;;;;;;;6315557;28;20485;-88
2024/01/05 12:56:46;;;;;;;0.20;0.20;;;;;;;;;;6327222;28;20138;-88
2024/01/05 12:59:46;;;;;;;0.20;0.20;;;;;;;;;;6316618;28;20372;-88
2024/01/05 13:02:46;;;;;;;0.20;0.20;;;;;;;;;;6317795;28;20015;-88
2024/01/05 13:05:46;;;;;;;0.20;0.20;;;;;;;;;;6317548;28;20012;-88
2024/01/05 13:08:47;;;;;;;0.20;0.20;;;;;;;;;;6328882;28;20020;-88
2024/01/05 13:11:51;;;;;;;0.20;0.20;;;;;;;;;;6308575;28;20624;-89
2024/01/05 13:14:51;;;;;;;0.20;0.20;;;;;;;;;;6318092;28;20466;-88
2024/01/05 13:17:52;;;;;;;0.10;0.10;;;;;;;;;;6331116;28;20081;-88
2024/01/05 13:20:53;;;;;;;0.20;0.20;;;;;;;;;;6301847;28;20085;-88
2024/01/05 13:23:54;;;;;;;0.20;0.20;;;;;;;;;;6320772;28;20020;-83
2024/01/05 13:26:58;;;;;;;0.20;0.20;;;;;;;;;;6307791;28;20044;-83
2024/01/05 13:29:58;;;;;;;0.20;0.20;;;;;;;;;;6313457;28;20993;-82
2024/01/05 13:32:58;;;;;;;0.20;0.20;;;;;;;;;;6321907;28;20020;-82
2024/01/05 13:35:58;;;;;;;0.20;0.20;;;;;;;;;;6314604;28;20008;-83
2024/01/05 13:38:58;;;;;;;0.20;0.20;;;;;;;;;;6332233;28;20526;-83
2024/01/05 13:41:58;;;;;;;0.20;0.20;;;;;;;;;;6335239;28;20099;-82
2024/01/05 13:45:04;;;;;;;0.20;0.20;;;;;;;;;;6322409;28;20020;-89
2024/01/05 13:48:05;;;;;;;0.20;0.20;;;;;;;;;;6318569;28;20026;-89
2024/01/05 13:51:05;;;;;;;0.20;0.20;;;;;;;;;;6309534;28;20473;-88
2024/01/05 13:54:05;;;;;;;0.20;0.20;;;;;;;;;;6324308;28;20013;-88
2024/01/05 13:57:06;;;;;;;0.20;0.20;;;;;;;;;;6335336;28;20027;-88
2024/01/05 14:00:06;;;;;;;0.20;0.20;;;;;;;;;;6314773;28;20058;-89
2024/01/05 14:03:07;;;;;;;0.20;0.20;;;;;;;;;;6305822;28;20027;-88
2024/01/05 14:06:11;;;;;;;0.20;0.20;;;;;;;;;;6301270;28;20065;-83
2024/01/05 14:09:11;;;;;;;0.20;0.20;;;;;;;;;;6338158;28;20114;-82
2024/01/05 14:12:12;;;;;;;0.20;0.20;;;;;;;;;;6315837;28;20028;-83
2024/01/05 14:15:13;;;;;;;0.20;0.20;;;;;;;;;;6338938;28;20026;-83
2024/01/05 14:18:13;;;;;;;0.20;0.20;;;;;;;;;;6311816;28;20347;-82
2024/01/05 14:21:20;;;;;;;0.20;0.20;;;;;;;;;;6323932;28;20084;-83
2024/01/05 14:24:20;;;;;;;0.20;0.20;;;;;;;;;;6301770;28;20523;-83
2024/01/05 14:27:20;;;;;;;0.20;0.20;;;;;;;;;;6310326;28;20046;-83
2024/01/05 14:30:20;;;;;;;0.20;0.20;;;;;;;;;;6315905;28;20032;-82
2024/01/05 14:33:21;;;;;;;0.20;0.20;;;;;;;;;;6326224;28;20016;-82
2024/01/05 14:36:23;;;;;;;0.20;0.20;;;;;;;;;;6315131;28;20013;-89
2024/01/05 14:39:27;;;;;;;0.20;0.20;;;;;;;;;;6326917;28;20019;-88
2024/01/05 14:42:27;;;;;;;0.20;0.20;;;;;;;;;;6326699;28;20119;-89
2024/01/05 14:45:27;;;;;;;0.20;0.20;;;;;;;;;;6325361;28;20382;-88
2024/01/05 14:48:28;;;;;;;0.20;0.20;;;;;;;;;;6324559;28;20035;-88
2024/01/05 14:51:28;;;;;;;0.20;0.20;;;;;;;;;;6291189;28;20016;-88
2024/01/05 14:54:28;;;;;;;0.20;0.20;;;;;;;;;;6327723;28;20016;-88
2024/01/05 14:57:28;;;;;;;0.20;0.20;;;;;;;;;;6318791;28;20102;-89
2024/01/05 15:00:29;;;;;;;0.20;0.20;;;;;;;;;;6297287;28;20523;-88
2024/01/05 15:03:30;;;;;;;0.20;0.20;;;;;;;;;;6309263;28;20031;-88
2024/01/05 15:06:30;;;;;;;0.20;0.20;;;;;;;;;;6309748;28;20016;-88
2024/01/05 15:09:30;;;;;;;0.20;0.20;;;;;;;;;;6315882;28;20016;-88
2024/01/05 15:12:30;;;;;;;0.20;0.20;;;;;;;;;;6315108;28;20023;-88
2024/01/05 15:15:30;;;;;;;0.20;0.20;;;;;;;;;;6313457;28;20914;-82
2024/01/05 15:18:31;;;;;;;0.20;0.20;;;;;;;;;;6335567;28;20035;-80
2024/01/05 15:21:31;;;;;;;0.20;0.20;;;;;;;;;;6314059;28;20032;-80
2024/01/05 15:24:31;;;;;;;0.20;0.20;;;;;;;;;;6297378;28;20020;-80
2024/01/05 15:27:31;;;;;;;0.20;0.20;;;;;;;;;;6311316;28;20047;-82
2024/01/05 15:30:32;;;;;;;0.20;0.20;;;;;;;;;;6327331;28;20484;-82
2024/01/05 15:33:33;;;;;;;0.20;0.20;;;;;;;;;;6331681;28;20439;-82
2024/01/05 15:36:33;;;;;;;0.30;0.30;;;;;;;;;;6301812;28;20019;-82
2024/01/05 15:39:33;;;;;;;0.20;0.20;;;;;;;;;;6325241;28;20016;-82
2024/01/05 15:42:33;;;;;;;0.20;0.20;;;;;;;;;;6315862;28;20030;-82
2024/01/05 15:45:34;;;;;;;0.20;0.20;;;;;;;;;;6334807;28;20023;-88
2024/01/05 15:48:34;;;;;;;0.20;0.20;;;;;;;;;;6308039;28;20489;-88
2024/01/05 15:51:36;;;;;;;0.20;0.20;;;;;;;;;;6325784;28;20016;-87
2024/01/05 15:54:36;;;;;;;;;;;;;;;;;;6313899;28;20016;-88
2024/01/05 15:57:36;;;;;;;0.20;0.20;;;;;;;;;;6301035;28;19904;-88
2024/01/05 16:00:36;;;;;;;0.20;0.20;;;;;;;;;;6316794;28;20078;-88
2024/01/05 16:03:38;;;;;;;0.20;0.20;;;;;;;;;;6304171;28;20024;-87
2024/01/05 16:06:38;;;;;;;0.30;0.30;;;;;;;;;;6318421;28;20427;-87
2024/01/05 16:09:39;;;;;;;0.20;0.20;;;;;;;;;;6295621;28;20109;-85
2024/01/05 16:12:39;;;;;;;0.20;0.20;;;;;;;;;;6331914;28;20455;-86
2024/01/05 16:15:39;;;;;;;0.20;0.20;;;;;;;;;;6330233;28;20069;-86
2024/01/05 16:18:43;;;;;;;0.27;0.27;;;;;;;;;;6327117;28;20012;-86
2024/01/05 16:21:43;;;;;;;0.20;0.20;;;;;;;;;;6301321;28;20083;-86
2024/01/05 16:24:44;;;;;;;0.20;0.20;;;;;;;;;;6291491;28;20444;-86
2024/01/05 16:27:44;;;;;;;0.23;0.23;;;;;;;;;;6273660;28;20036;-87
2024/01/05 16:30:44;;;;;;;0.20;0.20;;;;;;;;;;6296156;28;20078;-86
2024/01/05 16:33:44;;;;;;;0.20;0.20;;;;;;;;;;6315909;28;20032;-86
2024/01/05 16:36:44;;;;;;;0.20;0.20;;;;;;;;;;6309862;28;20020;-86
2024/01/05 16:39:45;;;;;;;0.20;0.20;;;;;;;;;;6317093;28;20023;-85
2024/01/05 16:42:45;;;;;;;0.20;0.20;;;;;;;;;;6317166;28;20047;-85
2024/01/05 16:45:45;;;;;;;0.30;0.30;;;;;;;;;;6312814;28;20020;-86
2024/01/05 16:48:51;;;;;;;0.20;0.20;;;;;;;;;;6310629;28;20028;-86
2024/01/05 16:51:51;;;;;;;0.30;0.30;;;;;;;;;;6290307;28;20016;-86
2024/01/05 16:54:51;;;;;;;0.30;0.30;;;;;;;;;;6305395;28;20052;-80
2024/01/05 16:57:52;;;;;;;0.20;0.20;;;;;;;;;;6279126;28;20131;-80
2024/01/05 17:00:52;;;;;;;0.20;0.20;;;;;;;;;;6300067;28;20124;-80
2024/01/05 17:03:56;;;;;;;0.20;0.20;;;;;;;;;;6304253;28;20020;-80
2024/01/05 17:06:57;;;;;;;0.20;0.20;;;;;;;;;;6315656;28;20031;-80
2024/01/05 17:09:58;;;;;;;0.20;0.20;;;;;;;;;;6308816;28;20028;-80
2024/01/05 17:12:58;;;;;;;0.30;0.30;;;;;;;;;;6300439;28;20099;-80
2024/01/05 17:15:58;;;;;;;0.20;0.20;;;;;;;;;;6315654;28;20016;-79
2024/01/05 17:19:00;;;;;;;0.20;0.20;;;;;;;;;;6294307;28;20089;-80
2024/01/05 17:22:00;;;;;;;0.20;0.20;;;;;;;;;;6305223;28;20020;-80
2024/01/05 17:25:00;;;;;;;0.20;0.20;;;;;;;;;;6313876;28;20054;-80
2024/01/05 17:28:00;;;;;;;0.20;0.20;;;;;;;;;;6306000;28;20558;-80
2024/01/05 17:31:00;;;;;;;0.30;0.30;;;;;;;;;;6310044;28;20039;-80
2024/01/05 17:34:01;;;;;;;0.20;0.20;;;;;;;;;;6311259;28;20036;-80
2024/01/05 17:37:01;;;;;;;0.20;0.20;;;;;;;;;;6298280;28;20538;-80
2024/01/05 17:40:03;;;;;;;0.20;0.20;;;;;;;;;;6294079;28;20450;-80
2024/01/05 17:43:05;;;;;;;;;;;;;;;;;;6294842;28;20017;-78
2024/01/05 17:46:05;;;;;;;;;;;;;;;;;;6301276;28;20354;-84
2024/01/05 17:49:06;;;;;;;0.20;0.20;;;;;;;;;;6300213;28;19904;-84
2024/01/05 17:52:13;;;;;;;0.20;0.20;;;;;;;;;;6301215;28;20020;-84
2024/01/05 17:55:13;;;;;;;0.20;0.20;;;;;;;;;;6301669;28;20461;-84
2024/01/05 17:58:13;;;;;;;0.20;0.20;;;;;;;;;;6296353;28;20033;-84
2024/01/05 18:01:13;;;;;;;0.20;0.20;;;;;;;;;;6311665;28;20491;-84
2024/01/05 18:04:14;;;;;;;0.20;0.20;;;;;;;;;;6310014;28;20504;-83
2024/01/05 18:07:16;;;;;;;0.20;0.20;;;;;;;;;;6314690;28;20471;-84